Time;durP1;ratioP1;P1;durP2;ratioP2;P2;SDS_P1;SDS_P2;PMS_P1;PMS_P2;Temp;Humidity;BMP_temperature;BMP_pressure;BME280_temperature;BME280_humidity;BME280_pressure;Samples;Min_cycle;Max_cycle;Signal;HPM_P1;HPM_P2
2023/03/02 00:00:54;;;;;;;;;;;3.80;99.90;;;;;;5074307;28;19978;-46
2023/03/02 00:03:19;;;;;;;;;;;3.80;99.90;;;;;;5073688;28;19909;-48
2023/03/02 00:05:46;;;;;;;;;;;3.70;99.90;;;;;;5074464;28;19916;-46
2023/03/02 00:08:12;;;;;;;;;;;3.70;99.90;;;;;;5074185;28;20394;-44
2023/03/02 00:10:38;;;;;;;;;;;3.70;99.90;;;;;;5073910;28;19909;-46
2023/03/02 00:13:03;;;;;;;;;;;3.60;99.90;;;;;;5074069;28;19908;-48
2023/03/02 00:15:29;;;;;;;;;;;3.60;99.90;;;;;;5074212;28;19909;-44
2023/03/02 00:17:54;;;;;;;;;;;3.60;99.90;;;;;;5073311;28;19908;-46
2023/03/02 00:20:20;;;;;;;;;;;3.60;99.90;;;;;;5073827;28;19912;-46
2023/03/02 00:22:46;;;;;;;;;;;3.60;99.90;;;;;;5073215;28;19969;-48
2023/03/02 00:25:12;;;;;;;;;;;3.60;99.90;;;;;;5073847;28;20371;-45
2023/03/02 00:27:38;;;;;;;;;;;3.60;99.90;;;;;;5074102;28;20425;-46
2023/03/02 00:30:04;;;;;;;;;;;3.60;99.90;;;;;;5072994;28;19912;-49
2023/03/02 00:32:29;;;;;;;;;;;3.50;99.90;;;;;;5073936;28;19912;-47
2023/03/02 00:34:55;;;;;;;;;;;3.50;99.90;;;;;;5073850;28;19908;-47
2023/03/02 00:37:20;;;;;;;;;;;3.50;99.90;;;;;;5072401;28;19916;-46
2023/03/02 00:39:46;;;;;;;;;;;3.40;99.90;;;;;;5073669;28;19991;-46
2023/03/02 00:42:11;;;;;;;;;;;3.50;99.90;;;;;;5073613;28;19924;-46
2023/03/02 00:44:37;;;;;;;;;;;3.40;99.90;;;;;;5073015;28;19948;-46
2023/03/02 00:47:02;;;;;;;;;;;3.40;99.90;;;;;;5073451;28;19908;-50
2023/03/02 00:49:28;;;;;;;;;;;3.40;99.90;;;;;;5073672;28;19995;-46
2023/03/02 00:51:53;;;;;;;;;;;3.40;99.90;;;;;;5070598;28;19943;-45
2023/03/02 00:54:18;;;;;;;;;;;3.30;99.90;;;;;;5073460;28;20377;-49
2023/03/02 00:56:44;;;;;;;;;;;3.40;99.90;;;;;;5073247;28;19915;-45
2023/03/02 00:59:25;;;;;;;;;;;3.30;99.90;;;;;;5072212;28;19920;-49
2023/03/02 01:01:56;;;;;;;;;;;3.30;99.90;;;;;;5073053;28;19950;-48
2023/03/02 01:04:30;;;;;;;;;;;3.30;99.90;;;;;;5073355;28;19915;-46
2023/03/02 01:07:03;;;;;;;;;;;3.30;99.90;;;;;;5072294;28;19909;-52
2023/03/02 01:09:28;;;;;;;;;;;3.30;99.90;;;;;;5073115;28;19990;-47
2023/03/02 01:11:54;;;;;;;;;;;3.30;99.90;;;;;;5072673;28;20367;-56
2023/03/02 01:14:20;;;;;;;;;;;3.30;99.90;;;;;;5072777;28;20348;-47
2023/03/02 01:16:46;;;;;;;;;;;3.30;99.90;;;;;;5073064;28;19908;-47
2023/03/02 01:19:15;;;;;;;;;;;3.30;99.90;;;;;;5072133;28;19953;-48
2023/03/02 01:21:40;;;;;;;;;;;3.30;99.90;;;;;;5056999;28;19924;-46
2023/03/02 01:24:06;;;;;;;;;;;3.30;99.90;;;;;;5053046;28;19909;-47
2023/03/02 01:26:32;;;;;;;;;;;3.20;99.90;;;;;;5052295;28;19909;-46
2023/03/02 01:28:57;;;;;;;;;;;3.20;99.90;;;;;;5052825;28;20287;-49
2023/03/02 01:31:23;;;;;;;;;;;3.20;99.90;;;;;;5052859;28;19908;-45
2023/03/02 01:33:49;;;;;;;;;;;3.20;99.90;;;;;;5052095;28;20268;-51
2023/03/02 01:36:15;;;;;;;;;;;3.20;99.90;;;;;;5052685;28;20239;-48
2023/03/02 01:38:40;;;;;;;;;;;3.20;99.90;;;;;;5052576;28;19916;-45
2023/03/02 01:41:06;;;;;;;;;;;3.20;99.90;;;;;;5051887;28;19909;-47
2023/03/02 01:43:31;;;;;;;;;;;3.20;99.90;;;;;;5052958;28;20310;-48
2023/03/02 01:45:57;;;;;;;;;;;3.20;99.90;;;;;;5052622;28;20360;-46
2023/03/02 01:48:34;;;;;;;;;;;3.20;99.90;;;;;;5051779;28;19956;-45
2023/03/02 01:51:00;;;;;;;;;;;3.20;99.90;;;;;;5061783;28;20418;-48
2023/03/02 01:53:28;;;;;;;;;;;3.10;99.90;;;;;;5072739;28;19916;-46
2023/03/02 01:55:54;;;;;;;;;;;3.10;99.90;;;;;;5071949;28;20005;-47
2023/03/02 01:58:19;;;;;;;;;;;3.00;99.90;;;;;;5071918;28;20007;-51
2023/03/02 02:00:46;;;;;;;;;;;3.00;99.90;;;;;;5072644;28;19999;-47
2023/03/02 02:03:14;;;;;;;;;;;3.00;99.90;;;;;;5071611;28;19959;-44
2023/03/02 02:05:41;;;;;;;;;;;3.00;99.90;;;;;;5072448;28;19954;-50
2023/03/02 02:08:06;;;;;;;;;;;3.00;99.90;;;;;;5072478;28;19913;-47
2023/03/02 02:10:33;;;;;;;;;;;2.90;99.90;;;;;;5071958;28;20344;-47
2023/03/02 02:12:58;;;;;;;;;;;2.90;99.90;;;;;;5072378;28;19954;-48
2023/03/02 02:15:24;;;;;;;;;;;2.90;99.90;;;;;;5071739;28;20367;-47
2023/03/02 02:17:50;;;;;;;;;;;2.90;99.90;;;;;;5072381;28;19944;-50
2023/03/02 02:20:36;;;;;;;;;;;2.90;99.90;;;;;;5071966;28;19991;-46
2023/03/02 02:23:07;;;;;;;;;;;2.90;99.90;;;;;;5071565;28;19924;-49
2023/03/02 02:25:55;;;;;;;;;;;2.90;99.90;;;;;;5072394;28;19909;-48
2023/03/02 02:28:24;;;;;;;;;;;2.90;99.90;;;;;;5072133;28;19909;-45
2023/03/02 02:30:52;;;;;;;;;;;2.90;99.90;;;;;;5071666;28;19943;-49
2023/03/02 02:33:21;;;;;;;;;;;2.90;99.90;;;;;;5072188;28;19908;-49
2023/03/02 02:35:47;;;;;;;;;;;2.90;99.90;;;;;;5072523;28;19908;-45
2023/03/02 02:38:15;;;;;;;;;;;2.90;99.90;;;;;;5071573;28;19912;-50
2023/03/02 02:40:44;;;;;;;;;;;2.80;99.90;;;;;;5072250;28;19919;-46
2023/03/02 02:43:11;;;;;;;;;;;2.80;99.90;;;;;;5071980;28;19927;-48
2023/03/02 02:45:37;;;;;;;;;;;2.80;99.90;;;;;;5071461;28;19908;-47
2023/03/02 02:48:02;;;;;;;;;;;2.80;99.90;;;;;;5072094;28;19915;-48
2023/03/02 02:50:29;;;;;;;;;;;2.70;99.90;;;;;;5070363;28;20260;-49
2023/03/02 02:53:16;;;;;;;;;;;2.70;99.90;;;;;;5070339;28;19913;-46
2023/03/02 02:55:42;;;;;;;;;;;2.70;99.90;;;;;;5072110;28;19912;-47
2023/03/02 02:58:26;;;;;;;;;;;2.70;99.90;;;;;;5070925;28;20380;-48
2023/03/02 03:00:53;;;;;;;;;;;2.70;99.90;;;;;;5075138;28;19908;-50
2023/03/02 03:03:28;;;;;;;;;;;2.70;99.90;;;;;;5075466;28;19913;-44
2023/03/02 03:05:54;;;;;;;;;;;2.70;99.90;;;;;;5074658;28;19908;-51
2023/03/02 03:08:38;;;;;;;;;;;2.70;99.90;;;;;;5074047;28;19977;-47
2023/03/02 03:11:03;;;;;;;;;;;2.70;99.90;;;;;;5075253;28;19912;-47
2023/03/02 03:13:29;;;;;;;;;;;2.70;99.90;;;;;;5074856;28;20050;-47
2023/03/02 03:15:54;;;;;;;;;;;2.60;99.90;;;;;;5075216;28;19908;-47
2023/03/02 03:18:23;;;;;;;;;;;2.60;99.90;;;;;;5075236;28;19908;-47
2023/03/02 03:20:49;;;;;;;;;;;2.60;99.90;;;;;;5074252;28;19916;-46
2023/03/02 03:23:14;;;;;;;;;;;2.50;99.90;;;;;;5074992;28;19923;-47
2023/03/02 03:25:40;;;;;;;;;;;2.50;99.90;;;;;;5074370;28;19919;-47
2023/03/02 03:28:05;;;;;;;;;;;2.50;99.90;;;;;;5075066;28;20329;-52
2023/03/02 03:30:31;;;;;;;;;;;2.50;99.90;;;;;;5075113;28;19999;-47
2023/03/02 03:32:56;;;;;;;;;;;2.50;99.90;;;;;;5074253;28;19920;-47
2023/03/02 03:35:22;;;;;;;;;;;2.50;99.90;;;;;;5074962;28;20370;-46
2023/03/02 03:37:47;;;;;;;;;;;2.40;99.90;;;;;;5074896;28;19908;-50
2023/03/02 03:40:13;;;;;;;;;;;2.40;99.90;;;;;;5074128;28;20371;-47
2023/03/02 03:42:38;;;;;;;;;;;2.40;99.90;;;;;;5074766;28;19970;-46
2023/03/02 03:45:05;;;;;;;;;;;2.40;99.90;;;;;;5074775;28;19909;-46
2023/03/02 03:47:31;;;;;;;;;;;2.30;99.90;;;;;;5073844;28;19909;-48
2023/03/02 03:49:56;;;;;;;;;;;2.30;99.90;;;;;;5074726;28;19995;-47
2023/03/02 03:52:29;;;;;;;;;;;2.30;99.90;;;;;;5056463;28;20003;-47
2023/03/02 03:54:58;;;;;;;;;;;2.30;99.90;;;;;;5054290;28;19931;-46
2023/03/02 03:57:24;;;;;;;;;;;2.30;99.90;;;;;;5054613;28;19909;-48
2023/03/02 03:59:50;;;;;;;;;;;2.30;99.90;;;;;;5054185;28;19924;-49
2023/03/02 04:02:15;;;;;;;;;;;2.30;99.90;;;;;;5053573;28;19924;-47
2023/03/02 04:04:41;;;;;;;;;;;2.30;99.90;;;;;;5054489;28;19927;-47
2023/03/02 04:07:06;;;;;;;;;;;2.30;99.90;;;;;;5054362;28;19920;-46
2023/03/02 04:09:36;;;;;;;;;;;2.30;99.90;;;;;;5053608;28;19916;-46
2023/03/02 04:12:02;;;;;;;;;;;2.30;99.90;;;;;;5053000;28;19919;-49
2023/03/02 04:14:28;;;;;;;;;;;2.30;99.90;;;;;;5054215;28;19991;-47
2023/03/02 04:16:54;;;;;;;;;;;2.30;99.90;;;;;;5053545;28;20007;-48
2023/03/02 04:19:19;;;;;;;;;;;2.30;99.90;;;;;;5054159;28;20027;-45
2023/03/02 04:21:47;;;;;;;;;;;2.30;99.90;;;;;;5066388;28;20371;-50
2023/03/02 04:24:13;;;;;;;;;;;2.30;99.90;;;;;;5073756;28;19912;-46
2023/03/02 04:26:40;;;;;;;;;;;2.30;99.90;;;;;;5073949;28;19951;-46
2023/03/02 04:29:05;;;;;;;;;;;2.40;99.90;;;;;;5073317;28;19909;-48
2023/03/02 04:31:31;;;;;;;;;;;2.30;99.90;;;;;;5073791;28;20000;-45
2023/03/02 04:33:57;;;;;;;;;;;2.30;99.90;;;;;;5073781;28;20149;-47
2023/03/02 04:36:22;;;;;;;;;;;2.40;99.90;;;;;;5073110;28;19908;-45
2023/03/02 04:38:48;;;;;;;;;;;2.40;99.90;;;;;;5073911;28;19947;-46
2023/03/02 04:41:15;;;;;;;;;;;2.40;99.90;;;;;;5073440;28;19908;-45
2023/03/02 04:43:41;;;;;;;;;;;2.30;99.90;;;;;;5072844;28;20260;-45
2023/03/02 04:46:06;;;;;;;;;;;2.30;99.90;;;;;;5073546;28;20544;-46
2023/03/02 04:48:32;;;;;;;;;;;2.30;99.90;;;;;;5073660;28;19916;-46
2023/03/02 04:50:57;;;;;;;;;;;2.30;99.90;;;;;;5067301;28;19978;-49
2023/03/02 04:53:23;;;;;;;;;;;2.30;99.90;;;;;;5053427;28;19932;-45
2023/03/02 04:55:48;;;;;;;;;;;2.30;99.90;;;;;;5053274;28;19915;-47
2023/03/02 04:58:14;;;;;;;;;;;2.30;99.90;;;;;;5052321;28;19928;-45
2023/03/02 05:00:40;;;;;;;;;;;2.30;99.90;;;;;;5053361;28;19923;-44
2023/03/02 05:03:06;;;;;;;;;;;2.30;99.90;;;;;;5053403;28;19975;-44
2023/03/02 05:05:31;;;;;;;;;;;2.20;99.90;;;;;;5052525;28;19909;-47
2023/03/02 05:07:58;;;;;;;;;;;2.20;99.90;;;;;;5053149;28;19954;-46
2023/03/02 05:10:24;;;;;;;;;;;2.20;99.90;;;;;;5053448;28;19944;-46
2023/03/02 05:12:53;;;;;;;;;;;2.20;99.90;;;;;;5052345;28;19995;-48
2023/03/02 05:15:27;;;;;;;;;;;2.20;99.90;;;;;;5053053;28;20326;-46
2023/03/02 05:17:52;;;;;;;;;;;2.20;99.90;;;;;;5053102;28;20319;-48
2023/03/02 05:20:18;;;;;;;;;;;2.20;99.90;;;;;;5071023;28;20378;-46
2023/03/02 05:22:44;;;;;;;;;;;2.20;99.90;;;;;;5080774;28;19946;-46
2023/03/02 05:25:09;;;;;;;;;;;2.30;99.90;;;;;;5079468;28;19912;-47
2023/03/02 05:27:35;;;;;;;;;;;2.20;99.90;;;;;;5082115;28;19991;-47
2023/03/02 05:30:02;;;;;;;;;;;2.20;99.90;;;;;;5081539;28;19909;-50
2023/03/02 05:32:27;;;;;;;;;;;2.20;99.90;;;;;;5079989;28;20388;-49
2023/03/02 05:34:53;;;;;;;;;;;2.20;99.90;;;;;;5081196;28;19912;-49
2023/03/02 05:37:18;;;;;;;;;;;2.10;99.90;;;;;;5076510;28;20157;-46
2023/03/02 05:39:44;;;;;;;;;;;2.10;99.90;;;;;;5080013;28;20442;-45
2023/03/02 05:42:09;;;;;;;;;;;2.10;99.90;;;;;;5082142;28;20018;-48
2023/03/02 05:44:35;;;;;;;;;;;2.00;99.90;;;;;;5080635;28;19915;-46
2023/03/02 05:47:00;;;;;;;;;;;2.10;99.90;;;;;;5080721;28;20278;-46
2023/03/02 05:49:26;;;;;;;;;;;2.10;99.90;;;;;;5081962;28;19908;-47
2023/03/02 05:51:51;;;;;;;;;;;2.10;99.90;;;;;;5079386;28;19913;-51
2023/03/02 05:54:16;;;;;;;;;;;2.10;99.90;;;;;;5081062;28;19912;-48
2023/03/02 05:56:42;;;;;;;;;;;2.10;99.90;;;;;;5081398;28;19986;-47
2023/03/02 05:59:08;;;;;;;;;;;2.10;99.90;;;;;;5081011;28;19928;-47
2023/03/02 06:01:35;;;;;;;;;;;2.00;99.90;;;;;;5076737;28;19917;-51
2023/03/02 06:04:01;;;;;;;;;;;2.00;99.90;;;;;;5081087;28;19916;-47
2023/03/02 06:06:26;;;;;;;;;;;2.00;99.90;;;;;;5081771;28;19961;-47
2023/03/02 06:08:52;;;;;;;;;;;2.00;99.90;;;;;;5078840;28;19978;-46
2023/03/02 06:11:17;;;;;;;;;;;2.00;99.90;;;;;;5080986;28;20042;-51
2023/03/02 06:13:43;;;;;;;;;;;2.00;99.90;;;;;;5081372;28;19912;-47
2023/03/02 06:16:08;;;;;;;;;;;2.00;99.90;;;;;;5079267;28;19917;-48
2023/03/02 06:18:34;;;;;;;;;;;2.00;99.90;;;;;;5082019;28;19908;-46
2023/03/02 06:21:00;;;;;;;;;;;2.00;99.90;;;;;;5081063;28;20015;-48
2023/03/02 06:23:26;;;;;;;;;;;2.00;99.90;;;;;;5079618;28;20010;-47
2023/03/02 06:25:51;;;;;;;;;;;2.00;99.90;;;;;;5091768;28;19991;-44
2023/03/02 06:28:18;;;;;;;;;;;1.90;99.90;;;;;;5092453;28;19908;-47
2023/03/02 06:30:44;;;;;;;;;;;1.90;99.90;;;;;;5083521;28;19915;-49
2023/03/02 06:33:09;;;;;;;;;;;1.90;99.90;;;;;;5071889;28;19916;-48
2023/03/02 06:35:35;;;;;;;;;;;1.90;99.90;;;;;;5074431;28;19915;-45
2023/03/02 06:38:00;;;;;;;;;;;1.90;99.90;;;;;;5075977;28;19916;-51
2023/03/02 06:40:26;;;;;;;;;;;1.90;99.90;;;;;;5075652;28;19946;-46
2023/03/02 06:42:51;;;;;;;;;;;2.00;99.90;;;;;;5074963;28;19963;-50
2023/03/02 06:45:17;;;;;;;;;;;2.00;99.90;;;;;;5076018;28;20345;-49
2023/03/02 06:47:42;;;;;;;;;;;2.00;99.90;;;;;;5075775;28;19908;-46
2023/03/02 06:50:08;;;;;;;;;;;2.00;99.90;;;;;;5073131;28;19912;-49
2023/03/02 06:52:34;;;;;;;;;;;2.00;99.90;;;;;;5055533;28;20245;-48
2023/03/02 06:54:59;;;;;;;;;;;2.00;99.90;;;;;;5055422;28;19909;-49
2023/03/02 06:57:32;;;;;;;;;;;2.00;99.90;;;;;;5054937;28;19908;-47
2023/03/02 06:59:58;;;;;;;;;;;2.10;99.90;;;;;;5055535;28;19921;-51
2023/03/02 07:02:23;;;;;;;;;;;2.10;99.90;;;;;;5057153;28;19917;-50
2023/03/02 07:04:49;;;;;;;;;;;2.10;99.90;;;;;;5087783;28;20366;-47
2023/03/02 07:07:14;;;;;;;;;;;2.10;99.90;;;;;;5084715;28;19967;-48
2023/03/02 07:09:40;;;;;;;;;;;2.10;99.90;;;;;;5081530;28;19920;-46
2023/03/02 07:12:05;;;;;;;;;;;2.10;99.90;;;;;;5077509;28;20423;-53
2023/03/02 07:14:33;;;;;;;;;;;2.10;99.90;;;;;;5083526;28;20458;-47
2023/03/02 07:16:58;;;;;;;;;;;2.10;99.90;;;;;;5080867;28;20378;-47
2023/03/02 07:19:24;;;;;;;;;;;2.10;99.90;;;;;;5080963;28;19912;-46
2023/03/02 07:21:49;;;;;;;;;;;2.10;99.90;;;;;;5079470;28;20008;-45
2023/03/02 07:24:15;;;;;;;;;;;2.10;99.90;;;;;;5084334;28;19912;-50
2023/03/02 07:26:40;;;;;;;;;;;2.10;99.90;;;;;;5081710;28;19908;-45
2023/03/02 07:29:06;;;;;;;;;;;2.20;99.90;;;;;;5082367;28;19978;-50
2023/03/02 07:31:31;;;;;;;;;;;2.20;99.90;;;;;;5082994;28;20351;-49
2023/03/02 07:33:57;;;;;;;;;;;2.20;99.90;;;;;;5083992;28;19908;-49
2023/03/02 07:36:22;;;;;;;;;;;2.20;99.90;;;;;;5080112;28;19981;-49
2023/03/02 07:38:48;;;;;;;;;;;2.20;99.90;;;;;;5084245;28;19913;-46
2023/03/02 07:41:15;;;;;;;;;;;2.20;99.90;;;;;;5082726;28;19966;-51
2023/03/02 07:43:41;;;;;;;;;;;2.30;99.90;;;;;;5084193;28;20307;-50
2023/03/02 07:46:06;;;;;;;;;;;2.30;99.90;;;;;;5082337;28;19930;-47
2023/03/02 07:48:32;;;;;;;;;;;2.30;99.90;;;;;;5082664;28;20363;-48
2023/03/02 07:50:58;;;;;;;;;;;2.30;99.90;;;;;;5084094;28;19912;-50
2023/03/02 07:53:24;;;;;;;;;;;2.30;99.90;;;;;;5082041;28;20011;-47
2023/03/02 07:55:49;;;;;;;;;;;2.30;99.90;;;;;;5082888;28;19995;-47
2023/03/02 07:58:15;;;;;;;;;;;2.30;99.90;;;;;;5084038;28;19928;-47
2023/03/02 08:00:40;;;;;;;;;;;2.30;99.90;;;;;;5081673;28;19913;-46
2023/03/02 08:03:06;;;;;;;;;;;2.30;99.90;;;;;;5083155;28;19916;-48
2023/03/02 08:05:31;;;;;;;;;;;2.40;99.90;;;;;;5079748;28;19908;-45
2023/03/02 08:07:57;;;;;;;;;;;2.40;99.90;;;;;;5083311;28;19920;-47
2023/03/02 08:10:22;;;;;;;;;;;2.50;99.90;;;;;;5082366;28;19916;-47
2023/03/02 08:12:48;;;;;;;;;;;2.40;99.90;;;;;;5082912;28;20351;-47
2023/03/02 08:15:13;;;;;;;;;;;2.50;99.90;;;;;;5075850;28;19963;-55
2023/03/02 08:17:39;;;;;;;;;;;2.50;99.90;;;;;;5074946;28;19908;-46
2023/03/02 08:20:04;;;;;;;;;;;2.50;99.90;;;;;;5073586;28;20256;-47
2023/03/02 08:22:30;;;;;;;;;;;2.60;99.90;;;;;;5071951;28;20112;-49
2023/03/02 08:24:55;;;;;;;;;;;2.60;99.90;;;;;;5073894;28;19915;-51
2023/03/02 08:27:21;;;;;;;;;;;2.70;99.90;;;;;;5074856;28;19908;-47
2023/03/02 08:29:46;;;;;;;;;;;2.60;99.90;;;;;;5074128;28;19931;-47
2023/03/02 08:32:12;;;;;;;;;;;2.70;99.90;;;;;;5074635;28;19979;-53
2023/03/02 08:34:37;;;;;;;;;;;2.70;99.90;;;;;;5074469;28;19915;-47
2023/03/02 08:37:04;;;;;;;;;;;2.70;99.90;;;;;;5073400;28;20437;-47
2023/03/02 08:39:30;;;;;;;;;;;2.70;99.90;;;;;;5071438;28;20367;-46
2023/03/02 08:41:57;;;;;;;;;;;2.70;99.90;;;;;;5065677;28;19924;-49
2023/03/02 08:44:22;;;;;;;;;;;2.80;99.90;;;;;;5054041;28;19978;-48
2023/03/02 08:46:48;;;;;;;;;;;2.90;99.90;;;;;;5054046;28;20348;-53
2023/03/02 08:49:14;;;;;;;;;;;2.90;99.90;;;;;;5053069;28;19913;-48
2023/03/02 08:51:40;;;;;;;;;;;2.90;99.90;;;;;;5064098;28;20423;-51
2023/03/02 08:54:05;;;;;;;;;;;3.00;99.90;;;;;;5068479;28;19944;-50
2023/03/02 08:56:33;;;;;;;;;;;3.10;99.90;;;;;;5057025;28;19920;-46
2023/03/02 08:59:01;;;;;;;;;;;3.10;99.90;;;;;;5053591;28;19928;-47
2023/03/02 09:01:28;;;;;;;;;;;3.20;99.90;;;;;;5053217;28;20007;-49
2023/03/02 09:03:54;;;;;;;;;;;3.20;99.90;;;;;;5052705;28;19920;-48
2023/03/02 09:06:20;;;;;;;;;;;3.20;99.90;;;;;;5053329;28;20009;-49
2023/03/02 09:08:46;;;;;;;;;;;3.30;99.90;;;;;;5053521;28;19968;-45
2023/03/02 09:11:11;;;;;;;;;;;3.20;99.90;;;;;;5052614;28;20039;-47
2023/03/02 09:13:37;;;;;;;;;;;3.30;99.90;;;;;;5053186;28;20221;-49
2023/03/02 09:16:03;;;;;;;;;;;3.30;99.90;;;;;;5053112;28;19913;-47
2023/03/02 09:18:29;;;;;;;;;;;3.40;99.90;;;;;;5052378;28;19909;-49
2023/03/02 09:20:55;;;;;;;;;;;3.30;99.90;;;;;;5064266;28;19908;-45
2023/03/02 09:23:21;;;;;;;;;;;3.40;99.90;;;;;;5073087;28;20290;-48
2023/03/02 09:25:47;;;;;;;;;;;3.40;99.90;;;;;;5072342;28;19908;-46
2023/03/02 09:28:13;;;;;;;;;;;3.40;99.90;;;;;;5072983;28;19909;-47
2023/03/02 09:30:39;;;;;;;;;;;3.40;99.90;;;;;;5067709;28;19909;-48
2023/03/02 09:33:04;;;;;;;;;;;3.50;99.90;;;;;;5059834;28;20288;-50
2023/03/02 09:35:30;;;;;;;;;;;3.50;99.90;;;;;;5063375;28;19912;-47
2023/03/02 09:37:55;;;;;;;;;;;3.60;99.90;;;;;;5055225;28;20279;-48
2023/03/02 09:40:22;;;;;;;;;;;3.50;99.90;;;;;;5070811;28;19912;-46
2023/03/02 09:42:57;;;;;;;;;;;3.60;99.90;;;;;;5072411;28;19923;-49
2023/03/02 09:45:34;;;;;;;;;;;3.60;99.90;;;;;;5058109;28;20295;-50
2023/03/02 09:48:15;;;;;;;;;;;3.70;99.90;;;;;;5071880;28;19908;-52
2023/03/02 09:50:48;;;;;;;;;;;3.70;99.90;;;;;;5053132;28;19995;-46
2023/03/02 09:53:34;;;;;;;;;;;3.70;99.90;;;;;;5051792;28;19913;-46
2023/03/02 09:56:00;;;;;;;;;;;3.70;99.90;;;;;;5052503;28;19948;-51
2023/03/02 09:58:28;;;;;;;;;;;3.80;99.90;;;;;;5053120;28;19927;-52
2023/03/02 10:00:54;;;;;;;;;;;3.90;99.90;;;;;;5052868;28;20299;-49
2023/03/02 10:03:21;;;;;;;;;;;3.90;99.90;;;;;;5053173;28;19970;-46
2023/03/02 10:05:47;;;;;;;;;;;3.90;99.90;;;;;;5052951;28;19909;-48
2023/03/02 10:08:13;;;;;;;;;;;4.00;99.90;;;;;;5051755;28;19909;-48
2023/03/02 10:10:45;;;;;;;;;;;4.00;99.90;;;;;;5055878;28;20317;-46
2023/03/02 10:13:23;;;;;;;;;;;4.10;99.90;;;;;;5056497;28;19920;-47
2023/03/02 10:16:07;;;;;;;;;;;4.10;99.90;;;;;;5074825;28;19987;-49
2023/03/02 10:18:51;;;;;;;;;;;4.20;99.90;;;;;;5076575;28;19975;-48
2023/03/02 10:21:31;;;;;;;;;;;4.20;99.90;;;;;;5075534;28;19955;-48
2023/03/02 10:24:01;;;;;;;;;;;4.30;99.90;;;;;;5076499;28;19999;-46
2023/03/02 10:26:37;;;;;;;;;;;4.30;99.90;;;;;;5070687;28;19919;-48
2023/03/02 10:29:06;;;;;;;;;;;4.40;99.90;;;;;;5064985;28;20266;-47
2023/03/02 10:31:32;;;;;;;;;;;4.40;99.90;;;;;;5073606;28;20287;-48
2023/03/02 10:33:58;;;;;;;;;;;4.40;99.90;;;;;;5065176;28;20414;-51
2023/03/02 10:36:28;;;;;;;;;;;4.40;99.90;;;;;;5076348;28;19932;-45
2023/03/02 10:38:55;;;;;;;;;;;4.40;99.90;;;;;;5076655;28;19912;-49
2023/03/02 10:41:32;;;;;;;;;;;4.40;99.90;;;;;;5065103;28;20169;-46
2023/03/02 10:44:06;;;;;;;;;;;4.50;99.90;;;;;;5055271;28;19913;-45
2023/03/02 10:46:42;;;;;;;;;;;4.50;99.90;;;;;;5063868;28;20366;-46
2023/03/02 10:49:27;;;;;;;;;;;4.60;99.90;;;;;;5063466;28;19916;-49
2023/03/02 10:52:03;;;;;;;;;;;4.60;99.90;;;;;;5076773;28;19966;-46
2023/03/02 10:54:30;;;;;;;;;;;4.60;99.90;;;;;;5086954;28;19915;-50
2023/03/02 10:56:59;;;;;;;;;;;4.60;99.90;;;;;;5079183;28;19913;-48
2023/03/02 10:59:25;;;;;;;;;;;4.50;99.90;;;;;;5066962;28;19966;-46
2023/03/02 11:01:59;;;;;;;;;;;4.50;99.90;;;;;;5075767;28;19952;-46
2023/03/02 11:04:24;;;;;;;;;;;4.50;99.90;;;;;;5055455;28;20007;-49
2023/03/02 11:06:51;;;;;;;;;;;4.50;99.90;;;;;;5055799;28;20028;-49
2023/03/02 11:09:16;;;;;;;;;;;4.60;99.90;;;;;;5067340;28;19912;-47
2023/03/02 11:11:47;;;;;;;;;;;4.60;99.90;;;;;;5059525;28;19918;-52
2023/03/02 11:14:14;;;;;;;;;;;4.70;99.90;;;;;;5068003;28;19912;-46
2023/03/02 11:16:39;;;;;;;;;;;4.80;99.90;;;;;;5068963;28;19909;-46
2023/03/02 11:19:16;;;;;;;;;;;4.80;99.90;;;;;;5055408;28;19954;-48
2023/03/02 11:21:54;;;;;;;;;;;4.80;99.90;;;;;;5055270;28;19913;-46
2023/03/02 11:24:22;;;;;;;;;;;4.90;99.90;;;;;;5055134;28;19940;-45
2023/03/02 11:26:48;;;;;;;;;;;4.90;99.90;;;;;;5053607;28;19951;-50
2023/03/02 11:29:14;;;;;;;;;;;5.00;99.90;;;;;;5053225;28;19916;-52
2023/03/02 11:31:42;;;;;;;;;;;5.00;99.90;;;;;;5052286;28;19909;-47
2023/03/02 11:34:13;;;;;;;;;;;5.20;99.90;;;;;;5054868;28;19913;-46
2023/03/02 11:36:44;;;;;;;;;;;5.20;99.90;;;;;;5055434;28;19916;-48
2023/03/02 11:39:14;;;;;;;;;;;5.20;99.90;;;;;;5055122;28;19982;-50
2023/03/02 11:41:40;;;;;;;;;;;5.30;99.90;;;;;;5055414;28;19912;-46
2023/03/02 11:44:14;;;;;;;;;;;5.30;99.90;;;;;;5055510;28;20352;-48
2023/03/02 11:46:40;;;;;;;;;;;5.30;99.90;;;;;;5054401;28;20035;-48
2023/03/02 11:49:10;;;;;;;;;;;5.30;99.90;;;;;;5056310;28;19913;-46
2023/03/02 11:51:37;;;;;;;;;;;5.30;99.90;;;;;;5058650;28;19912;-47
2023/03/02 11:54:21;;;;;;;;;;;5.40;99.90;;;;;;5054027;28;19999;-47
2023/03/02 11:56:47;;;;;;;;;;;5.50;99.90;;;;;;5054600;28;19909;-46
2023/03/02 11:59:16;;;;;;;;;;;5.50;99.90;;;;;;5053347;28;19920;-47
2023/03/02 12:01:43;;;;;;;;;;;5.50;99.90;;;;;;5054356;28;19916;-48
2023/03/02 12:04:23;;;;;;;;;;;5.50;99.90;;;;;;5054362;28;19913;-47
2023/03/02 12:06:49;;;;;;;;;;;5.50;99.90;;;;;;5054085;28;19909;-51
2023/03/02 12:09:29;;;;;;;;;;;5.60;99.90;;;;;;5067849;28;19912;-45
2023/03/02 12:12:14;;;;;;;;;;;5.70;99.90;;;;;;5074883;28;19916;-47
2023/03/02 12:14:40;;;;;;;;;;;5.60;99.90;;;;;;5073744;28;19908;-47
2023/03/02 12:17:18;;;;;;;;;;;5.60;99.90;;;;;;5071365;28;19921;-46
2023/03/02 12:19:44;;;;;;;;;;;5.70;99.90;;;;;;5054641;28;19936;-47
2023/03/02 12:22:12;;;;;;;;;;;5.70;99.90;;;;;;5054252;28;19923;-47
2023/03/02 12:24:39;;;;;;;;;;;5.60;99.90;;;;;;5054903;28;19913;-46
2023/03/02 12:27:06;;;;;;;;;;;5.70;99.90;;;;;;5053973;28;19955;-56
2023/03/02 12:29:46;;;;;;;;;;;5.70;99.90;;;;;;5079863;28;19912;-47
2023/03/02 12:32:18;;;;;;;;;;;5.80;99.90;;;;;;5071030;28;19942;-46
2023/03/02 12:34:50;;;;;;;;;;;5.70;99.90;;;;;;5066610;28;20398;-47
2023/03/02 12:37:27;;;;;;;;;;;5.60;99.90;;;;;;5075209;28;19934;-47
2023/03/02 12:39:55;;;;;;;;;;;5.70;99.90;;;;;;5067608;28;19936;-51
2023/03/02 12:42:41;;;;;;;;;;;5.60;99.90;;;;;;5053835;28;20390;-50
2023/03/02 12:45:25;;;;;;;;;;;5.70;99.90;;;;;;5053811;28;20066;-47
2023/03/02 12:47:57;;;;;;;;;;;5.60;99.90;;;;;;5070006;28;19913;-48
2023/03/02 12:50:24;;;;;;;;;;;5.60;99.90;;;;;;5062616;28;19915;-47
2023/03/02 12:53:03;;;;;;;;;;;5.70;99.90;;;;;;5074260;28;19908;-48
2023/03/02 12:55:29;;;;;;;;;;;5.70;99.90;;;;;;5065373;28;20272;-48
2023/03/02 12:57:56;;;;;;;;;;;5.80;99.90;;;;;;5073757;28;19915;-46
2023/03/02 13:00:23;;;;;;;;;;;5.90;99.90;;;;;;5074335;28;19913;-46
2023/03/02 13:02:50;;;;;;;;;;;6.00;99.90;;;;;;5070031;28;19920;-48
2023/03/02 13:05:18;;;;;;;;;;;6.00;99.90;;;;;;5064724;28;19912;-47
2023/03/02 13:07:52;;;;;;;;;;;6.00;99.90;;;;;;5074080;28;19909;-47
2023/03/02 13:10:37;;;;;;;;;;;6.00;99.90;;;;;;5068712;28;19912;-47
2023/03/02 13:13:17;;;;;;;;;;;5.90;99.90;;;;;;5073128;28;20363;-46
2023/03/02 13:15:49;;;;;;;;;;;5.80;99.90;;;;;;5072507;28;20271;-46
2023/03/02 13:18:15;;;;;;;;;;;5.80;99.90;;;;;;5064745;28;20245;-48
2023/03/02 13:20:40;;;;;;;;;;;5.90;99.90;;;;;;5073337;28;20231;-47
2023/03/02 13:23:06;;;;;;;;;;;5.90;99.90;;;;;;5054794;28;20380;-46
2023/03/02 13:25:31;;;;;;;;;;;6.00;99.90;;;;;;5052240;28;20394;-46
2023/03/02 13:28:06;;;;;;;;;;;6.10;99.90;;;;;;5052861;28;19916;-45
2023/03/02 13:30:32;;;;;;;;;;;6.10;99.90;;;;;;5052277;28;19920;-47
2023/03/02 13:33:02;;;;;;;;;;;6.10;99.90;;;;;;5052733;28;19909;-45
2023/03/02 13:35:30;;;;;;;;;;;6.20;99.90;;;;;;5053176;28;19915;-49
2023/03/02 13:37:57;;;;;;;;;;;6.10;99.90;;;;;;5058662;28;19912;-47
2023/03/02 13:40:26;;;;;;;;;;;6.20;99.90;;;;;;5053331;28;20398;-47
2023/03/02 13:42:52;;;;;;;;;;;6.30;99.90;;;;;;5052409;28;20015;-49
2023/03/02 13:45:25;;;;;;;;;;;6.20;99.90;;;;;;5052288;28;20267;-46
2023/03/02 13:47:51;;;;;;;;;;;6.30;99.90;;;;;;5064593;28;19959;-53
2023/03/02 13:50:18;;;;;;;;;;;6.20;99.90;;;;;;5052599;28;19909;-55
2023/03/02 13:52:43;;;;;;;;;;;6.30;99.90;;;;;;5059696;28;19913;-48
2023/03/02 13:55:16;;;;;;;;;;;6.80;99.90;;;;;;5062183;28;19923;-47
2023/03/02 13:57:44;;;;;;;;;;;7.20;99.90;;;;;;5056570;28;20299;-46
2023/03/02 14:00:12;;;;;;;;;;;7.60;99.90;;;;;;5071974;28;20379;-47
2023/03/02 14:02:37;;;;;;;;;;;7.80;99.90;;;;;;5071724;28;19917;-48
2023/03/02 14:05:05;;;;;;;;;;;8.10;99.90;;;;;;5060035;28;19919;-47
2023/03/02 14:07:30;;;;;;;;;;;8.20;99.90;;;;;;5073161;28;19947;-49
2023/03/02 14:09:55;;;;;;;;;;;8.20;99.90;;;;;;5077510;28;19913;-47
2023/03/02 14:12:23;;;;;;;;;;;8.40;99.90;;;;;;5071706;28;19916;-48
2023/03/02 14:14:49;;;;;;;;;;;8.80;99.90;;;;;;5071738;28;20019;-51
2023/03/02 14:17:16;;;;;;;;;;;9.00;99.90;;;;;;5072453;28;20371;-47
2023/03/02 14:19:42;;;;;;;;;;;9.40;99.90;;;;;;5071875;28;19912;-49
2023/03/02 14:22:09;;;;;;;;;;;10.00;99.90;;;;;;5072273;28;19975;-49
2023/03/02 14:24:35;;;;;;;;;;;10.20;99.90;;;;;;5066309;28;19908;-50
2023/03/02 14:27:00;;;;;;;;;;;10.40;99.90;;;;;;5051535;28;19970;-46
2023/03/02 14:29:30;;;;;;;;;;;10.40;99.90;;;;;;5055125;28;20279;-51
2023/03/02 14:31:59;;;;;;;;;;;10.30;99.90;;;;;;5052033;28;19967;-47